createdAt,value
2018-03-26T00:00:00.150Z,100199.01
2018-03-26T00:01:02.628Z,100200.56
2018-03-26T00:02:05.128Z,100198.89
2018-03-26T00:03:07.635Z,100198.93
2018-03-26T00:04:10.135Z,100205.83
2018-03-26T00:05:12.627Z,100200.30
2018-03-26T00:06:15.133Z,100202.25
2018-03-26T00:07:17.627Z,100204.20
2018-03-26T00:08:20.155Z,100204.52
2018-03-26T00:09:22.677Z,100201.48
2018-03-26T00:10:26.080Z,100206.48
2018-03-26T00:11:28.589Z,100206.94
2018-03-26T00:12:31.088Z,100204.06
2018-03-26T00:13:33.594Z,100210.39
2018-03-26T00:14:36.103Z,100207.45
2018-03-26T00:15:38.594Z,100208.44
2018-03-26T00:16:41.097Z,100208.83
2018-03-26T00:17:43.572Z,100205.10
2018-03-26T00:18:46.072Z,100207.05
2018-03-26T00:19:48.593Z,100210.95
2018-03-26T00:20:51.083Z,100208.38
2018-03-26T00:21:53.624Z,100214.64
2018-03-26T00:22:56.104Z,100206.37
2018-03-26T00:23:58.606Z,100212.28
2018-03-26T00:25:01.118Z,100217.16
2018-03-26T00:26:03.610Z,100212.56
2018-03-26T00:27:06.094Z,100216.30
2018-03-26T00:28:08.586Z,100216.41
2018-03-26T00:29:11.088Z,100219.11
2018-03-26T00:30:13.644Z,100222.61
2018-03-26T00:31:16.126Z,100216.03
2018-03-26T00:32:18.614Z,100214.20
2018-03-26T00:33:21.121Z,100224.18
2018-03-26T00:34:23.610Z,100223.55
2018-03-26T00:35:26.106Z,100220.56
2018-03-26T00:36:28.607Z,100220.91
2018-03-26T00:37:31.089Z,100222.05
2018-03-26T00:38:33.583Z,100220.78
2018-03-26T00:39:36.074Z,100219.18
2018-03-26T00:40:38.584Z,100222.11
2018-03-26T00:41:41.085Z,100214.75
2018-03-26T00:42:43.575Z,100218.05
2018-03-26T00:43:46.058Z,100215.06
2018-03-26T00:44:48.568Z,100215.64
2018-03-26T00:45:51.070Z,100215.41
2018-03-26T00:46:53.570Z,100214.20
2018-03-26T00:47:56.077Z,100218.67
2018-03-26T00:48:58.552Z,100215.29
2018-03-26T00:50:01.124Z,100213.28
2018-03-26T00:51:03.634Z,100213.45
2018-03-26T00:52:06.108Z,100214.59
2018-03-26T00:53:08.585Z,100212.98
2018-03-26T00:54:11.072Z,100211.78
2018-03-26T00:55:13.576Z,100213.30
2018-03-26T00:56:16.087Z,100212.09
2018-03-26T00:57:18.576Z,100213.23
2018-03-26T00:58:21.062Z,100210.66
2018-03-26T00:59:23.550Z,100214.52
2018-03-26T01:00:26.036Z,100214.29
2018-03-26T01:01:28.551Z,100212.28
2018-03-26T01:02:31.054Z,100212.85
2018-03-26T01:03:33.543Z,100207.11
2018-03-26T01:04:36.012Z,100210.67
2018-03-26T01:05:38.503Z,100216.58
2018-03-26T01:06:41.009Z,100214.29
2018-03-26T01:07:43.491Z,100216.05
2018-03-26T01:08:45.960Z,100216.67
2018-03-26T01:09:48.465Z,100217.65
2018-03-26T01:10:50.936Z,100218.27
2018-03-26T01:11:53.446Z,100222.00
2018-03-26T01:12:55.982Z,100214.92
2018-03-26T01:13:58.501Z,100212.85
2018-03-26T01:15:00.987Z,100220.66
2018-03-26T01:16:03.492Z,100220.20
2018-03-26T01:17:06.025Z,100221.16
2018-03-26T01:18:08.534Z,100222.19
2018-03-26T01:19:11.022Z,100225.98
2018-03-26T01:20:13.514Z,100233.91
2018-03-26T01:21:16.002Z,100233.73
2018-03-26T01:22:18.511Z,100225.29
2018-03-26T01:23:21.005Z,100230.23
2018-03-26T01:24:23.516Z,100233.96
2018-03-26T01:25:26.008Z,100230.80
2018-03-26T01:26:28.498Z,100237.92
2018-03-26T01:27:31.000Z,100230.41
2018-03-26T01:28:33.520Z,100237.30
2018-03-26T01:29:35.997Z,100236.84
2018-03-26T01:30:38.495Z,100233.27
2018-03-26T01:31:40.994Z,100241.08
2018-03-26T01:32:43.507Z,100238.09
2018-03-26T01:33:46.012Z,100241.02
2018-03-26T01:34:48.489Z,100249.47
2018-03-26T01:35:50.988Z,100242.48
2018-03-26T01:36:53.474Z,100245.98
2018-03-26T01:37:55.996Z,100246.16
2018-03-26T01:38:58.501Z,100249.66
2018-03-26T01:40:00.990Z,100253.33
2018-03-26T01:41:03.476Z,100258.22
2018-03-26T01:42:05.963Z,100254.83
2018-03-26T01:43:08.467Z,100258.33
2018-03-26T01:44:10.972Z,100257.86
2018-03-26T01:45:13.463Z,100262.74
2018-03-26T01:46:15.948Z,100257.14
2018-03-26T01:47:18.434Z,100259.27
2018-03-26T01:48:21.000Z,100266.09
2018-03-26T01:49:23.490Z,100265.45
2018-03-26T01:50:25.970Z,100264.02
2018-03-26T01:51:28.481Z,100264.77
2018-03-26T01:52:30.967Z,100271.02
2018-03-26T01:53:33.481Z,100270.55
2018-03-26T01:54:35.970Z,100266.19
2018-03-26T01:55:38.529Z,100273.25
2018-03-26T01:56:41.084Z,100272.61
2018-03-26T01:57:43.578Z,100274.30
2018-03-26T01:58:46.104Z,100278.84
2018-03-26T01:59:48.609Z,100277.97
2018-03-26T02:00:51.094Z,100275.39
2018-03-26T02:01:53.579Z,100277.91
2018-03-26T02:02:56.071Z,100275.89
2018-03-26T02:03:58.578Z,100281.17
2018-03-26T02:05:01.056Z,100278.76
2018-03-26T02:06:03.592Z,100276.75
2018-03-26T02:07:06.078Z,100283.80
2018-03-26T02:08:08.570Z,100277.48
2018-03-26T02:09:11.090Z,100282.16
2018-03-26T02:10:13.578Z,100286.30
2018-03-26T02:11:16.067Z,100285.18
2018-03-26T02:12:18.545Z,100287.25
2018-03-26T02:13:21.045Z,100288.59
2018-03-26T02:14:23.555Z,100288.23
2018-03-26T02:15:26.068Z,100289.62
2018-03-26T02:16:28.565Z,100287.28
2018-03-26T02:17:31.069Z,100289.73
2018-03-26T02:18:33.566Z,100288.88
2018-03-26T02:19:36.063Z,100287.48
2018-03-26T02:20:38.536Z,100294.90
2018-03-26T02:21:41.012Z,100291.69
2018-03-26T02:22:43.488Z,100292.48
2018-03-26T02:23:45.975Z,100297.66
2018-03-26T02:24:48.461Z,100294.56
2018-03-26T02:25:50.946Z,100295.19
2018-03-26T02:26:53.472Z,100293.24
2018-03-26T02:27:55.977Z,100301.75
2018-03-26T02:28:58.474Z,100299.16
2018-03-26T02:30:00.980Z,100300.70
2018-03-26T02:31:03.470Z,100306.39
2018-03-26T02:32:05.940Z,100298.30
2018-03-26T02:33:08.430Z,100301.80
2018-03-26T02:34:10.919Z,100304.55
2018-03-26T02:35:13.430Z,100298.17
2018-03-26T02:36:15.905Z,100302.08
2018-03-26T02:37:18.395Z,100295.53
2018-03-26T02:38:20.882Z,100299.44
2018-03-26T02:39:23.369Z,100303.11
2018-03-26T02:40:25.860Z,100304.83
2018-03-26T02:41:28.363Z,100304.16
2018-03-26T02:42:30.836Z,100306.86
2018-03-26T02:43:33.323Z,100300.31
2018-03-26T02:44:35.819Z,100306.17
2018-03-26T02:45:38.327Z,100301.97
2018-03-26T02:46:40.805Z,100306.28
2018-03-26T02:47:43.287Z,100304.44
2018-03-26T02:48:45.762Z,100306.33
2018-03-26T02:49:48.247Z,100308.28
2018-03-26T02:50:50.765Z,100308.62
2018-03-26T02:51:53.256Z,100310.17
2018-03-26T02:52:55.768Z,100310.08
2018-03-26T02:53:58.244Z,100312.20
2018-03-26T02:55:00.731Z,100308.80
2018-03-26T02:56:03.247Z,100308.97
2018-03-26T02:57:05.757Z,100315.06
2018-03-26T02:58:08.247Z,100315.80
2018-03-26T02:59:10.734Z,100315.00
2018-03-26T03:00:13.238Z,100315.57
2018-03-26T03:01:15.777Z,100320.05
2018-03-26T03:02:18.271Z,100321.36
2018-03-26T03:03:20.776Z,100325.09
2018-03-26T03:04:23.278Z,100324.86
2018-03-26T03:05:25.766Z,100328.02
2018-03-26T03:06:28.256Z,100325.20
2018-03-26T03:07:30.775Z,100322.61
2018-03-26T03:08:33.261Z,100323.32
2018-03-26T03:09:35.750Z,100326.25
2018-03-26T03:10:38.248Z,100319.70
2018-03-26T03:11:40.770Z,100326.76
2018-03-26T03:12:43.264Z,100330.66
2018-03-26T03:13:45.740Z,100322.22
2018-03-26T03:14:48.231Z,100327.39
2018-03-26T03:15:50.714Z,100327.45
2018-03-26T03:16:53.299Z,100322.10
2018-03-26T03:17:55.804Z,100327.45
2018-03-26T03:18:58.326Z,100322.00
2018-03-26T03:20:00.819Z,100330.34
2018-03-26T03:21:03.317Z,100322.83
2018-03-26T03:22:05.817Z,100325.39
2018-03-26T03:23:08.310Z,100325.52
2018-03-26T03:24:10.816Z,100328.97
2018-03-26T03:25:13.321Z,100327.64
2018-03-26T03:26:15.824Z,100324.38
2018-03-26T03:27:18.362Z,100326.56
2018-03-26T03:28:20.847Z,100331.53
2018-03-26T03:29:23.345Z,100331.76
2018-03-26T03:30:25.835Z,100331.99
2018-03-26T03:31:28.359Z,100335.49
2018-03-26T03:32:30.956Z,100334.75
2018-03-26T03:33:33.446Z,100340.84
2018-03-26T03:34:35.954Z,100337.45
2018-03-26T03:35:38.438Z,100335.58
2018-03-26T03:36:40.923Z,100334.53
2018-03-26T03:37:43.416Z,100338.27
2018-03-26T03:38:45.906Z,100333.67
2018-03-26T03:39:48.406Z,100339.53
2018-03-26T03:40:50.880Z,100341.88
2018-03-26T03:41:53.385Z,100339.23
2018-03-26T03:42:55.913Z,100342.33
2018-03-26T03:43:58.402Z,100336.19
2018-03-26T03:45:00.884Z,100343.59
2018-03-26T03:46:03.376Z,100337.41
2018-03-26T03:47:05.881Z,100336.55
2018-03-26T03:48:08.405Z,100345.79
2018-03-26T03:49:10.913Z,100339.01
2018-03-26T03:50:13.399Z,100339.92
2018-03-26T03:51:15.890Z,100341.41
2018-03-26T03:52:18.393Z,100349.45
2018-03-26T03:53:20.914Z,100341.12
2018-03-26T03:54:23.407Z,100346.70
2018-03-26T03:55:25.877Z,100344.86
2018-03-26T03:56:28.360Z,100349.91
2018-03-26T03:57:30.860Z,100338.66
2018-03-26T03:58:33.366Z,100345.48
2018-03-26T03:59:35.869Z,100343.46
2018-03-26T04:00:38.372Z,100340.08
2018-03-26T04:01:40.865Z,100344.38
2018-03-26T04:02:43.361Z,100342.13
2018-03-26T04:03:45.867Z,100344.08
2018-03-26T04:04:48.377Z,100349.09
2018-03-26T04:05:50.851Z,100350.06
2018-03-26T04:06:53.334Z,100347.82
2018-03-26T04:07:55.845Z,100351.55
2018-03-26T04:08:58.361Z,100347.35
2018-03-26T04:10:00.832Z,100354.81
2018-03-26T04:11:03.323Z,100355.55
2018-03-26T04:12:05.792Z,100364.16
2018-03-26T04:13:08.266Z,100356.63
2018-03-26T04:14:10.755Z,100353.78
2018-03-26T04:15:13.242Z,100359.63
2018-03-26T04:16:15.728Z,100362.39
2018-03-26T04:17:18.219Z,100364.16
2018-03-26T04:18:20.707Z,100366.28
2018-03-26T04:19:23.214Z,100366.88
2018-03-26T04:20:25.792Z,100364.17
2018-03-26T04:21:28.352Z,100366.89
2018-03-26T04:22:30.838Z,100360.59
2018-03-26T04:23:33.325Z,100363.16
2018-03-26T04:24:35.840Z,100363.02
2018-03-26T04:25:38.318Z,100369.69
2018-03-26T04:26:40.824Z,100364.16
2018-03-26T04:27:43.305Z,100362.27
2018-03-26T04:28:45.814Z,100373.19
2018-03-26T04:29:48.342Z,100371.30
2018-03-26T04:30:50.830Z,100371.30
2018-03-26T04:31:53.320Z,100365.03
2018-03-26T04:32:55.820Z,100367.62
2018-03-26T04:33:58.320Z,100375.72
2018-03-26T04:35:00.830Z,100372.39
2018-03-26T04:36:03.320Z,100367.45
2018-03-26T04:37:05.832Z,100368.43
2018-03-26T04:38:08.341Z,100368.77
2018-03-26T04:39:10.830Z,100367.16
2018-03-26T04:40:13.321Z,100373.42
2018-03-26T04:41:15.816Z,100371.80
2018-03-26T04:42:18.284Z,100371.74
2018-03-26T04:43:20.764Z,100377.83
2018-03-26T04:44:23.265Z,100375.42
2018-03-26T04:45:25.774Z,100374.55
2018-03-26T04:46:28.256Z,100375.30
2018-03-26T04:47:30.750Z,100376.58
2018-03-26T04:48:33.249Z,100380.41
2018-03-26T04:49:35.735Z,100375.24
2018-03-26T04:50:38.243Z,100375.18
2018-03-26T04:51:40.736Z,100378.28
2018-03-26T04:52:43.209Z,100379.02
2018-03-26T04:53:45.711Z,100383.09
2018-03-26T04:54:48.221Z,100378.15
2018-03-26T04:55:50.785Z,100380.44
2018-03-26T04:56:53.251Z,100384.08
2018-03-26T04:57:55.752Z,100378.33
2018-03-26T04:58:58.246Z,100381.43
2018-03-26T05:00:00.730Z,100384.12
2018-03-26T05:01:03.293Z,100385.84
2018-03-26T05:02:05.767Z,100386.58
2018-03-26T05:03:08.273Z,100385.54
2018-03-26T05:04:10.744Z,100386.85
2018-03-26T05:05:13.234Z,100387.59
2018-03-26T05:06:15.771Z,100396.17
2018-03-26T05:07:18.263Z,100394.95
2018-03-26T05:08:20.746Z,100391.73
2018-03-26T05:09:23.230Z,100391.91
2018-03-26T05:10:25.744Z,100393.45
2018-03-26T05:11:28.332Z,100390.63
2018-03-26T05:12:30.827Z,100397.28
2018-03-26T05:13:33.325Z,100402.56
2018-03-26T05:14:35.819Z,100396.81
2018-03-26T05:15:38.323Z,100402.73
2018-03-26T05:16:40.827Z,100398.19
2018-03-26T05:17:43.324Z,100401.25
2018-03-26T05:18:45.816Z,100403.97
2018-03-26T05:19:48.323Z,100403.78
2018-03-26T05:20:50.827Z,100409.39
2018-03-26T05:21:53.334Z,100412.20
2018-03-26T05:22:55.850Z,100409.23
2018-03-26T05:23:58.337Z,100405.45
2018-03-26T05:25:00.824Z,100408.20
2018-03-26T05:26:03.328Z,100408.16
2018-03-26T05:27:05.848Z,100417.47
2018-03-26T05:28:08.338Z,100418.56
2018-03-26T05:29:10.840Z,100421.16
2018-03-26T05:30:13.335Z,100422.77
2018-03-26T05:31:15.812Z,100422.59
2018-03-26T05:32:18.345Z,100418.86
2018-03-26T05:33:20.828Z,100423.40
2018-03-26T05:34:23.322Z,100422.83
2018-03-26T05:35:25.829Z,100425.02
2018-03-26T05:36:28.323Z,100425.59
2018-03-26T05:37:30.845Z,100432.81
2018-03-26T05:38:33.338Z,100433.16
2018-03-26T05:39:35.841Z,100438.03
2018-03-26T05:40:38.414Z,100433.84
2018-03-26T05:41:40.887Z,100429.47
2018-03-26T05:42:43.402Z,100432.97
2018-03-26T05:43:45.957Z,100434.28
2018-03-26T05:44:48.450Z,100441.75
2018-03-26T05:45:50.937Z,100444.04
2018-03-26T05:46:53.409Z,100443.54
2018-03-26T05:47:55.924Z,100446.23
2018-03-26T05:48:58.410Z,100448.75
2018-03-26T05:50:00.902Z,100453.23
2018-03-26T05:51:03.395Z,100450.81
2018-03-26T05:52:05.900Z,100449.60
2018-03-26T05:53:08.406Z,100460.56
2018-03-26T05:54:10.905Z,100458.31
2018-03-26T05:55:13.390Z,100453.30
2018-03-26T05:56:15.864Z,100459.12
2018-03-26T05:57:18.465Z,100461.41
2018-03-26T05:58:20.985Z,100463.13
2018-03-26T05:59:23.478Z,100459.91
2018-03-26T06:00:25.964Z,100456.67
2018-03-26T06:01:28.476Z,100467.47
2018-03-26T06:02:30.976Z,100465.21
2018-03-26T06:03:33.510Z,100468.88
2018-03-26T06:04:35.992Z,100467.80
2018-03-26T06:05:38.497Z,100469.52
2018-03-26T06:06:40.992Z,100468.71
2018-03-26T06:07:43.489Z,100472.38
2018-03-26T06:08:45.996Z,100469.38
2018-03-26T06:09:48.484Z,100474.42
2018-03-26T06:10:50.985Z,100479.86
2018-03-26T06:11:53.582Z,100476.70
2018-03-26T06:12:56.102Z,100482.38
2018-03-26T06:13:58.615Z,100481.75
2018-03-26T06:15:01.126Z,100486.34
2018-03-26T06:16:03.638Z,100485.14
2018-03-26T06:17:13.664Z,100486.25
2018-03-26T06:18:16.177Z,100483.83
2018-03-26T06:19:18.685Z,100483.02
2018-03-26T06:20:21.191Z,100486.68
2018-03-26T06:21:23.685Z,100490.24
2018-03-26T06:22:26.245Z,100490.58
2018-03-26T06:23:28.739Z,100489.37
2018-03-26T06:24:31.246Z,100494.23
2018-03-26T06:25:33.754Z,100493.02
2018-03-26T06:26:36.250Z,100496.52
2018-03-26T06:27:38.742Z,100500.81
2018-03-26T06:28:41.226Z,100500.34
2018-03-26T06:29:43.727Z,100498.97
2018-03-26T06:30:46.224Z,100498.33
2018-03-26T06:31:48.733Z,100503.59
2018-03-26T06:32:51.244Z,100502.36
2018-03-26T06:33:53.743Z,100502.52
2018-03-26T06:34:56.253Z,100499.13
2018-03-26T06:35:58.761Z,100501.24
2018-03-26T06:37:05.808Z,100506.34
2018-03-26T06:38:18.211Z,100509.09
2018-03-26T06:39:21.504Z,100511.37
2018-03-26T06:40:24.055Z,100512.11
2018-03-26T06:41:26.555Z,100511.31
2018-03-26T06:42:29.050Z,100515.37
2018-03-26T06:43:31.548Z,100514.56
2018-03-26T06:44:34.056Z,100517.88
2018-03-26T06:45:36.563Z,100514.48
2018-03-26T06:46:39.050Z,100522.52
2018-03-26T06:47:41.553Z,100521.30
2018-03-26T06:48:44.059Z,100522.67
2018-03-26T06:49:46.565Z,100522.41
2018-03-26T06:50:49.063Z,100532.61
2018-03-26T06:51:51.559Z,100518.04
2018-03-26T06:52:54.046Z,100519.98
2018-03-26T06:53:56.552Z,100522.50
2018-03-26T06:54:59.037Z,100525.02
2018-03-26T06:56:01.564Z,100523.41
2018-03-26T06:57:04.123Z,100522.59
2018-03-26T06:58:06.659Z,100526.48
2018-03-26T06:59:09.163Z,100522.52
2018-03-26T07:00:11.654Z,100531.35
2018-03-26T07:01:14.170Z,100534.67
2018-03-26T07:02:16.672Z,100527.95
2018-03-26T07:03:19.180Z,100529.66
2018-03-26T07:04:21.670Z,100538.49
2018-03-26T07:05:24.158Z,100537.28
2018-03-26T07:06:26.683Z,100531.94
2018-03-26T07:07:29.178Z,100532.51
2018-03-26T07:08:31.662Z,100534.45
2018-03-26T07:09:34.160Z,100540.94
2018-03-26T07:10:36.659Z,100544.42
2018-03-26T07:11:39.178Z,100548.69
2018-03-26T07:12:41.662Z,100547.48
2018-03-26T07:13:44.132Z,100545.05
2018-03-26T07:14:46.622Z,100546.02
2018-03-26T07:15:49.155Z,100548.94
2018-03-26T07:16:51.659Z,100553.64
2018-03-26T07:17:54.128Z,100546.12
2018-03-26T07:18:56.651Z,100550.81
2018-03-26T07:19:59.143Z,100553.56
2018-03-26T07:21:01.630Z,100550.98
2018-03-26T07:22:04.154Z,100550.98
2018-03-26T07:23:06.638Z,100555.67
2018-03-26T07:24:09.112Z,100556.41
2018-03-26T07:25:11.598Z,100556.00
2018-03-26T07:26:14.086Z,100554.80
2018-03-26T07:27:16.604Z,100556.17
2018-03-26T07:28:19.190Z,100555.36
2018-03-26T07:29:21.695Z,100557.30
2018-03-26T07:30:24.186Z,100558.28
2018-03-26T07:31:26.746Z,100561.77
2018-03-26T07:32:29.287Z,100560.95
2018-03-26T07:33:31.779Z,100566.63
2018-03-26T07:34:34.266Z,100565.41
2018-03-26T07:35:36.783Z,100565.55
2018-03-26T07:36:39.339Z,100562.95
2018-03-26T07:37:41.864Z,100564.50
2018-03-26T07:38:44.369Z,100571.55
2018-03-26T07:39:46.841Z,100568.95
2018-03-26T07:40:49.413Z,100568.55
2018-03-26T07:41:51.902Z,100561.84
2018-03-26T07:42:54.407Z,100557.47
2018-03-26T07:43:56.907Z,100566.13
2018-03-26T07:44:59.435Z,100567.27
2018-03-26T07:46:01.916Z,100569.61
2018-03-26T07:47:04.407Z,100571.16
2018-03-26T07:48:06.901Z,100572.93
2018-03-26T07:49:09.384Z,100572.69
2018-03-26T07:50:11.879Z,100566.37
2018-03-26T07:51:14.369Z,100568.33
2018-03-26T07:52:16.839Z,100568.66
2018-03-26T07:53:19.366Z,100577.88
2018-03-26T07:54:21.868Z,100578.05
2018-03-26T07:55:24.378Z,100576.27
2018-03-26T07:56:26.875Z,100575.62
2018-03-26T07:57:29.387Z,100585.81
2018-03-26T07:58:31.884Z,100579.50
2018-03-26T07:59:34.378Z,100580.88
2018-03-26T08:00:36.874Z,100585.01
2018-03-26T08:01:39.367Z,100585.01
2018-03-26T08:02:41.882Z,100588.16
2018-03-26T08:03:44.374Z,100586.55
2018-03-26T08:04:46.862Z,100583.63
2018-03-26T08:05:49.378Z,100590.67
2018-03-26T08:06:51.885Z,100595.34
2018-03-26T08:07:54.397Z,100594.53
2018-03-26T08:08:56.900Z,100593.31
2018-03-26T08:09:59.394Z,100594.86
2018-03-26T08:11:01.908Z,100594.45
2018-03-26T08:12:04.394Z,100601.50
2018-03-26T08:13:06.882Z,100599.72
2018-03-26T08:14:09.378Z,100599.87
2018-03-26T08:15:11.848Z,100603.77
2018-03-26T08:16:14.353Z,100603.93
2018-03-26T08:17:16.855Z,100608.46
2018-03-26T08:18:19.336Z,100597.62
2018-03-26T08:19:21.861Z,100606.84
2018-03-26T08:20:24.375Z,100607.41
2018-03-26T08:21:26.886Z,100608.55
2018-03-26T08:22:29.389Z,100611.86
2018-03-26T08:23:31.898Z,100614.20
2018-03-26T08:24:34.407Z,100609.41
2018-03-26T08:25:36.935Z,100615.07
2018-03-26T08:26:39.426Z,100614.02
2018-03-26T08:27:41.918Z,100616.61
2018-03-26T08:28:44.425Z,100616.77
2018-03-26T08:29:46.941Z,100618.95
2018-03-26T08:30:49.420Z,100621.47
2018-03-26T08:31:51.918Z,100616.13
2018-03-26T08:32:54.419Z,100623.00
2018-03-26T08:33:56.957Z,100616.83
2018-03-26T08:34:59.446Z,100626.32
2018-03-26T08:36:01.927Z,100625.48
2018-03-26T08:37:04.419Z,100626.05
2018-03-26T08:38:06.925Z,100621.68
2018-03-26T08:39:09.423Z,100629.77
2018-03-26T08:40:11.927Z,100624.44
2018-03-26T08:41:14.434Z,100625.00
2018-03-26T08:42:16.957Z,100627.34
2018-03-26T08:43:19.503Z,100625.00
2018-03-26T08:44:21.956Z,100625.73
2018-03-26T08:45:24.491Z,100624.75
2018-03-26T08:46:26.972Z,100621.20
2018-03-26T08:47:29.476Z,100621.77
2018-03-26T08:48:31.963Z,100620.55
2018-03-26T08:49:34.436Z,100620.88
2018-03-26T08:50:36.953Z,100623.06
2018-03-26T08:51:39.456Z,100620.88
2018-03-26T08:52:42.012Z,100618.12
2018-03-26T08:53:44.524Z,100620.47
2018-03-26T08:54:47.019Z,100618.05
2018-03-26T08:55:49.534Z,100618.45
2018-03-26T08:56:52.012Z,100620.80
2018-03-26T08:57:54.504Z,100616.83
2018-03-26T08:58:56.990Z,100619.18
2018-03-26T08:59:59.489Z,100616.59
2018-03-26T09:01:02.003Z,100619.34
2018-03-26T09:02:04.539Z,100615.78
2018-03-26T09:03:07.038Z,100618.94
2018-03-26T09:04:09.536Z,100621.28
2018-03-26T09:05:12.024Z,100625.00
2018-03-26T09:06:14.520Z,100621.05
2018-03-26T09:07:17.014Z,100620.07
2018-03-26T09:08:19.506Z,100624.20
2018-03-26T09:09:21.995Z,100629.30
2018-03-26T09:10:24.510Z,100627.52
2018-03-26T09:11:27.016Z,100626.47
2018-03-26T09:12:29.500Z,100618.62
2018-03-26T09:13:32.000Z,100621.05
2018-03-26T09:14:34.514Z,100622.02
2018-03-26T09:15:37.021Z,100620.23
2018-03-26T09:16:39.516Z,100623.15
2018-03-26T09:17:42.007Z,100620.72
2018-03-26T09:18:44.492Z,100619.59
2018-03-26T09:19:47.001Z,100620.96
2018-03-26T09:20:49.486Z,100614.81
2018-03-26T09:21:51.990Z,100613.84
2018-03-26T09:22:54.460Z,100614.95
2018-03-26T09:23:57.076Z,100613.73
2018-03-26T09:24:59.582Z,100617.45
2018-03-26T09:26:02.122Z,100618.99
2018-03-26T09:27:04.758Z,100615.27
2018-03-26T09:28:07.254Z,100616.81
2018-03-26T09:29:09.739Z,100615.44
2018-03-26T09:30:12.217Z,100621.34
2018-03-26T09:31:14.723Z,100622.47
2018-03-26T09:32:17.289Z,100622.06
2018-03-26T09:33:19.778Z,100621.66
2018-03-26T09:34:22.276Z,100621.50
2018-03-26T09:35:24.782Z,100619.88
2018-03-26T09:36:27.271Z,100616.73
2018-03-26T09:37:29.802Z,100624.73
2018-03-26T09:38:32.291Z,100621.02
2018-03-26T09:39:34.807Z,100619.80
2018-03-26T09:40:37.323Z,100621.58
2018-03-26T09:41:39.800Z,100614.70
2018-03-26T09:42:42.314Z,100618.59
2018-03-26T09:43:44.842Z,100612.69
2018-03-26T09:44:47.328Z,100622.72
2018-03-26T09:45:49.865Z,100617.22
2018-03-26T09:46:52.422Z,100623.36
2018-03-26T09:47:54.967Z,100622.63
2018-03-26T09:48:57.487Z,100626.59
2018-03-26T09:49:59.976Z,100620.13
2018-03-26T09:51:02.494Z,100619.16
2018-03-26T09:52:05.002Z,100617.94
2018-03-26T09:53:07.498Z,100627.16
2018-03-26T09:54:09.986Z,100622.88
2018-03-26T09:55:12.493Z,100619.56
2018-03-26T09:56:14.982Z,100621.91
2018-03-26T09:57:17.470Z,100622.88
2018-03-26T09:58:19.984Z,100627.56
2018-03-26T09:59:22.461Z,100621.09
2018-03-26T10:00:30.524Z,100622.63
2018-03-26T10:01:33.015Z,100622.23
2018-03-26T10:02:35.511Z,100619.64
2018-03-26T10:03:38.010Z,100625.70
2018-03-26T10:04:40.513Z,100628.45
2018-03-26T10:05:43.834Z,100625.87
2018-03-26T10:06:46.327Z,100623.28
2018-03-26T10:07:48.810Z,100627.48
2018-03-26T10:08:51.313Z,100621.83
2018-03-26T10:09:53.816Z,100620.69
2018-03-26T10:10:56.304Z,100627.08
2018-03-26T10:11:58.804Z,100621.02
2018-03-26T10:13:01.291Z,100619.23
2018-03-26T10:14:03.789Z,100622.80
2018-03-26T10:15:06.293Z,100625.14
2018-03-26T10:16:08.790Z,100624.25
2018-03-26T10:17:11.279Z,100631.86
2018-03-26T10:18:13.798Z,100630.08
2018-03-26T10:19:16.306Z,100632.98
2018-03-26T10:20:18.798Z,100632.74
2018-03-26T10:21:21.272Z,100627.89
2018-03-26T10:22:23.749Z,100629.27
2018-03-26T10:23:26.239Z,100624.90
2018-03-26T10:24:28.758Z,100630.72
2018-03-26T10:25:31.249Z,100633.15
2018-03-26T10:26:33.753Z,100635.73
2018-03-26T10:27:36.242Z,100630.69
2018-03-26T10:28:38.720Z,100630.93
2018-03-26T10:29:41.227Z,100634.09
2018-03-26T10:30:43.709Z,100628.59
2018-03-26T10:31:46.279Z,100630.53
2018-03-26T10:32:49.028Z,100629.39
2018-03-26T10:33:51.685Z,100639.02
2018-03-26T10:34:54.277Z,100632.14
2018-03-26T10:35:56.853Z,100630.93
2018-03-26T10:36:59.675Z,100632.06
2018-03-26T10:38:02.224Z,100637.16
2018-03-26T10:39:04.811Z,100633.44
2018-03-26T10:40:07.414Z,100635.62
2018-03-26T10:41:10.100Z,100633.84
2018-03-26T10:42:12.748Z,100638.13
2018-03-26T10:43:15.404Z,100629.31
2018-03-26T10:44:18.106Z,100631.83
2018-03-26T10:45:20.830Z,100633.20
2018-03-26T10:46:23.437Z,100627.94
2018-03-26T10:47:26.098Z,100629.87
2018-03-26T10:48:28.753Z,100629.64
2018-03-26T10:49:31.424Z,100632.79
2018-03-26T10:50:34.092Z,100636.11
2018-03-26T10:51:36.642Z,100622.69
2018-03-26T10:52:39.190Z,100625.59
2018-03-26T10:53:41.740Z,100629.87
2018-03-26T10:54:44.320Z,100626.48
2018-03-26T10:55:46.990Z,100628.10
2018-03-26T10:56:49.632Z,100625.52
2018-03-26T10:57:52.402Z,100631.66
2018-03-26T10:58:54.986Z,100635.54
2018-03-26T10:59:57.590Z,100632.30
2018-03-26T11:01:00.300Z,100626.00
2018-03-26T11:02:02.939Z,100625.51
2018-03-26T11:03:05.577Z,100626.08
2018-03-26T11:04:08.125Z,100628.02
2018-03-26T11:05:10.696Z,100628.58
2018-03-26T11:06:13.380Z,100624.62
2018-03-26T11:07:15.942Z,100630.36
2018-03-26T11:08:18.588Z,100626.64
2018-03-26T11:09:21.170Z,100623.33
2018-03-26T11:10:23.813Z,100626.32
2018-03-26T11:11:26.606Z,100631.33
2018-03-26T11:12:29.253Z,100631.98
2018-03-26T11:13:31.803Z,100626.16
2018-03-26T11:14:34.378Z,100632.14
2018-03-26T11:15:36.953Z,100629.87
2018-03-26T11:16:39.548Z,100636.59
2018-03-26T11:17:42.183Z,100626.41
2018-03-26T11:18:44.843Z,100632.30
2018-03-26T11:19:47.399Z,100629.56
2018-03-26T11:20:49.962Z,100633.44
2018-03-26T11:21:52.629Z,100631.02
2018-03-26T11:22:55.185Z,100630.28
2018-03-26T11:23:57.946Z,100635.46
2018-03-26T11:25:00.613Z,100631.69
2018-03-26T11:26:03.239Z,100637.52
2018-03-26T11:27:05.932Z,100634.12
2018-03-26T11:28:08.540Z,100630.31
2018-03-26T11:29:11.099Z,100627.89
2018-03-26T11:30:13.689Z,100629.30
2018-03-26T11:31:16.276Z,100635.77
2018-03-26T11:32:18.953Z,100630.42
2018-03-26T11:33:21.516Z,100630.74
2018-03-26T11:34:24.167Z,100626.56
2018-03-26T11:35:26.729Z,100630.20
2018-03-26T11:36:29.373Z,100624.81
2018-03-26T11:37:31.999Z,100625.45
2018-03-26T11:38:34.560Z,100630.95
2018-03-26T11:39:37.272Z,100632.73
2018-03-26T11:40:39.827Z,100635.48
2018-03-26T11:41:42.382Z,100637.27
2018-03-26T11:42:44.930Z,100633.30
2018-03-26T11:43:47.475Z,100636.63
2018-03-26T11:44:50.032Z,100639.94
2018-03-26T11:45:52.631Z,100637.73
2018-03-26T11:46:55.272Z,100641.05
2018-03-26T11:47:57.859Z,100638.70
2018-03-26T11:49:00.424Z,100636.52
2018-03-26T11:50:03.101Z,100637.48
2018-03-26T11:51:05.734Z,100633.52
2018-03-26T11:52:08.321Z,100634.89
2018-03-26T11:53:10.882Z,100638.30